Time;durP1;ratioP1;P1;durP2;ratioP2;P2;SDS_P1;SDS_P2;PMS_P1;PMS_P2;Temp;Humidity;BMP_temperature;BMP_pressure;BME280_temperature;BME280_humidity;BME280_pressure;Samples;Min_cycle;Max_cycle;Signal;HPM_P1;HPM_P2
2023/10/18 00:01:27;;;;;;;21.15;17.95;;;6.30;99.90;;;;;;5018936;28;20044;-76
2023/10/18 00:03:54;;;;;;;22.92;17.13;;;6.30;99.90;;;;;;5002763;28;20068;-77
2023/10/18 00:06:23;;;;;;;24.17;18.58;;;6.40;99.90;;;;;;5035025;28;20021;-77
2023/10/18 00:08:57;;;;;;;20.15;17.27;;;6.40;99.90;;;;;;5019212;28;20059;-77
2023/10/18 00:11:27;;;;;;;22.25;17.70;;;6.30;99.90;;;;;;5004279;28;20365;-77
2023/10/18 00:13:53;;;;;;;18.52;15.38;;;6.30;99.90;;;;;;5035586;28;20033;-77
2023/10/18 00:16:24;;;;;;;20.05;16.73;;;6.30;99.90;;;;;;5003185;28;20379;-77
2023/10/18 00:18:50;;;;;;;25.17;18.00;;;6.30;99.90;;;;;;5020160;28;20056;-77
2023/10/18 00:21:17;;;;;;;24.13;19.98;;;6.30;99.90;;;;;;5005171;28;20049;-76
2023/10/18 00:23:44;;;;;;;19.35;17.15;;;6.30;99.90;;;;;;5003818;28;20037;-76
2023/10/18 00:26:12;;;;;;;25.50;19.25;;;6.30;99.90;;;;;;5020359;28;20146;-77
2023/10/18 00:28:39;;;;;;;25.67;19.60;;;6.30;99.90;;;;;;5002232;28;20029;-76
2023/10/18 00:31:16;;;;;;;26.52;18.70;;;6.30;99.90;;;;;;5014129;28;20389;-77
2023/10/18 00:33:44;;;;;;;20.50;15.85;;;6.30;99.90;;;;;;4997816;28;20133;-76
2023/10/18 00:36:11;;;;;;;22.00;17.65;;;6.30;99.90;;;;;;5018712;28;20033;-77
2023/10/18 00:38:41;;;;;;;19.52;16.08;;;6.30;99.90;;;;;;5017381;28;20488;-77
2023/10/18 00:41:32;;;;;;;19.60;16.60;;;6.30;99.90;;;;;;5029111;28;20388;-76
2023/10/18 00:43:59;;;;;;;17.75;14.05;;;6.30;99.90;;;;;;5015994;28;20060;-76
2023/10/18 00:46:28;;;;;;;21.58;18.35;;;6.20;99.90;;;;;;5021665;28;20045;-77
2023/10/18 00:48:56;;;;;;;19.15;16.60;;;6.20;99.90;;;;;;5003944;28;20037;-77
2023/10/18 00:51:24;;;;;;;21.52;16.70;;;6.20;99.90;;;;;;5003693;28;20025;-77
2023/10/18 00:53:51;;;;;;;22.67;18.85;;;6.20;99.90;;;;;;5019526;28;20067;-77
2023/10/18 00:56:18;;;;;;;19.10;16.13;;;6.20;99.90;;;;;;5021583;28;20045;-77
2023/10/18 00:58:44;;;;;;;23.33;17.77;;;6.20;99.90;;;;;;5018826;28;20021;-78
2023/10/18 01:01:11;;;;;;;23.23;19.88;;;6.20;99.90;;;;;;5002558;28;20396;-75
2023/10/18 01:03:45;;;;;;;20.77;15.80;;;6.20;99.90;;;;;;4985103;28;20033;-77
2023/10/18 01:06:20;;;;;;;24.20;18.98;;;6.20;99.90;;;;;;4998584;28;20034;-77
2023/10/18 01:08:48;;;;;;;23.70;16.92;;;6.20;99.90;;;;;;5016178;28;20412;-77
2023/10/18 01:11:19;;;;;;;21.77;16.52;;;6.20;99.90;;;;;;5001730;28;20034;-77
2023/10/18 01:13:47;;;;;;;22.17;16.25;;;6.20;99.90;;;;;;5001372;28;20056;-77
2023/10/18 01:16:21;;;;;;;21.90;17.52;;;6.20;99.90;;;;;;4987389;28;20080;-77
2023/10/18 01:18:49;;;;;;;20.90;17.00;;;6.20;99.90;;;;;;5019999;28;20029;-77
2023/10/18 01:21:19;;;;;;;20.63;15.77;;;6.20;99.90;;;;;;5002121;28;20029;-77
2023/10/18 01:23:51;;;;;;;21.67;17.60;;;6.10;99.90;;;;;;5019352;28;20031;-76
2023/10/18 01:26:23;;;;;;;24.27;17.73;;;6.10;99.90;;;;;;5018896;28;20488;-77
2023/10/18 01:28:51;;;;;;;24.27;18.90;;;6.10;99.90;;;;;;5018883;28;20288;-77
2023/10/18 01:31:18;;;;;;;24.48;19.38;;;6.10;99.90;;;;;;5002839;28;20404;-77
2023/10/18 01:33:49;;;;;;;24.02;18.80;;;6.10;99.90;;;;;;5031678;28;20038;-77
2023/10/18 01:36:17;;;;;;;24.55;18.55;;;6.10;99.90;;;;;;5016652;28;20029;-77
2023/10/18 01:38:51;;;;;;;21.67;17.05;;;6.10;99.90;;;;;;4999698;28;20695;-77
2023/10/18 01:41:29;;;;;;;22.83;17.48;;;6.00;99.90;;;;;;4998874;28;20358;-77
2023/10/18 01:44:06;;;;;;;21.58;17.08;;;6.00;99.90;;;;;;4998168;28;20040;-77
2023/10/18 01:46:33;;;;;;;18.52;15.80;;;6.00;99.90;;;;;;5017900;28;20120;-77
2023/10/18 01:49:00;;;;;;;19.75;15.73;;;6.00;99.90;;;;;;5001864;28;20476;-76
2023/10/18 01:51:28;;;;;;;24.40;18.00;;;6.00;99.90;;;;;;5001575;28;20032;-77
2023/10/18 01:54:02;;;;;;;22.38;15.57;;;6.00;99.90;;;;;;5002396;28;20037;-76
2023/10/18 01:56:31;;;;;;;21.65;17.33;;;6.00;99.90;;;;;;5019540;28;20364;-76
2023/10/18 01:58:57;;;;;;;18.30;15.70;;;6.00;99.90;;;;;;5020835;28;20035;-76
2023/10/18 02:01:24;;;;;;;19.60;15.15;;;6.00;99.90;;;;;;5019137;28;20044;-77
2023/10/18 02:03:50;;;;;;;26.63;17.52;;;6.00;99.90;;;;;;5000701;28;20033;-77
2023/10/18 02:06:17;;;;;;;21.27;17.05;;;6.00;99.90;;;;;;4998285;28;20033;-76
2023/10/18 02:08:43;;;;;;;24.50;16.73;;;6.00;99.90;;;;;;4997965;28;20030;-76
2023/10/18 02:11:11;;;;;;;19.70;15.90;;;6.00;99.90;;;;;;5016066;28;20104;-76
2023/10/18 02:13:39;;;;;;;20.42;15.70;;;6.00;99.90;;;;;;4999237;28;20685;-77
2023/10/18 02:16:06;;;;;;;26.25;20.55;;;6.00;99.90;;;;;;5013379;28;20041;-77
2023/10/18 02:18:33;;;;;;;23.48;18.02;;;5.90;99.90;;;;;;5016338;28;20033;-77
2023/10/18 02:21:01;;;;;;;23.38;18.00;;;5.90;99.90;;;;;;5018015;28;20026;-77
2023/10/18 02:23:34;;;;;;;21.73;15.70;;;5.90;99.90;;;;;;5017798;28;20045;-77
2023/10/18 02:26:22;;;;;;;19.92;15.15;;;6.00;99.90;;;;;;4987697;28;20052;-77
2023/10/18 02:28:49;;;;;;;23.85;19.10;;;5.90;99.90;;;;;;4983773;28;20029;-77
2023/10/18 02:31:21;;;;;;;25.77;18.63;;;5.90;99.90;;;;;;5017541;28;20392;-76
2023/10/18 02:33:53;;;;;;;22.10;17.42;;;5.90;99.90;;;;;;5001736;28;20437;-77
2023/10/18 02:36:32;;;;;;;26.08;21.00;;;5.90;99.90;;;;;;5017981;28;20037;-76
2023/10/18 02:38:59;;;;;;;22.85;17.88;;;5.90;99.90;;;;;;5013158;28;20396;-77
2023/10/18 02:41:28;;;;;;;19.88;16.45;;;5.90;99.90;;;;;;5015447;28;20025;-77
2023/10/18 02:43:57;;;;;;;21.75;17.50;;;5.90;99.90;;;;;;5016337;28;20045;-76
2023/10/18 02:46:24;;;;;;;24.08;18.27;;;5.80;99.90;;;;;;5018198;28;20017;-77
2023/10/18 02:48:56;;;;;;;23.52;17.70;;;5.80;99.90;;;;;;5000309;28;20033;-77
2023/10/18 02:51:26;;;;;;;23.50;17.90;;;5.80;99.90;;;;;;5000536;28;20041;-76
2023/10/18 02:54:00;;;;;;;19.55;16.35;;;5.90;99.90;;;;;;4999189;28;20103;-77
2023/10/18 02:56:27;;;;;;;23.65;17.70;;;5.80;99.90;;;;;;5019470;28;20033;-77
2023/10/18 02:58:58;;;;;;;24.95;17.83;;;5.80;99.90;;;;;;5019857;28;20032;-77
2023/10/18 03:01:28;;;;;;;25.85;20.05;;;5.80;99.90;;;;;;5017549;28;20029;-77
2023/10/18 03:03:55;;;;;;;23.35;16.55;;;5.80;99.90;;;;;;4986041;28;20037;-77
2023/10/18 03:06:26;;;;;;;22.58;17.17;;;5.80;99.90;;;;;;5019126;28;20040;-77
2023/10/18 03:08:56;;;;;;;20.13;16.30;;;5.80;99.90;;;;;;5033164;28;20715;-77
2023/10/18 03:11:23;;;;;;;25.20;19.05;;;5.80;99.90;;;;;;4982693;28;20041;-78
2023/10/18 03:13:51;;;;;;;23.60;17.95;;;5.80;99.90;;;;;;5031920;28;20041;-77
2023/10/18 03:16:27;;;;;;;21.63;17.30;;;5.80;99.90;;;;;;5017088;28;20029;-77
2023/10/18 03:18:54;;;;;;;27.13;19.38;;;5.80;99.90;;;;;;5017815;28;20113;-77
2023/10/18 03:21:20;;;;;;;22.17;18.35;;;5.80;99.90;;;;;;4984251;28;20044;-78
2023/10/18 03:23:52;;;;;;;25.33;19.35;;;5.80;99.90;;;;;;5016809;28;20029;-77
2023/10/18 03:26:33;;;;;;;26.02;20.02;;;5.80;99.90;;;;;;4998778;28;20033;-78
2023/10/18 03:29:11;;;;;;;26.33;19.90;;;5.80;99.90;;;;;;5000037;28;20029;-77
2023/10/18 03:31:43;;;;;;;25.52;20.27;;;5.80;99.90;;;;;;5016423;28;20038;-77
2023/10/18 03:34:15;;;;;;;22.77;18.00;;;5.80;99.90;;;;;;5033582;28;20484;-77
2023/10/18 03:37:04;;;;;;;21.75;16.90;;;5.80;99.90;;;;;;5014489;28;21104;-77
2023/10/18 03:39:29;;;;;;;23.75;18.42;;;5.80;99.90;;;;;;5018548;28;20048;-77
2023/10/18 03:41:59;;;;;;;22.55;18.02;;;5.70;99.90;;;;;;4999588;28;20381;-77
2023/10/18 03:44:27;;;;;;;25.38;19.20;;;5.70;99.90;;;;;;4980760;28;20034;-77
2023/10/18 03:47:14;;;;;;;22.00;17.63;;;5.70;99.90;;;;;;5016582;28;20025;-77
2023/10/18 03:49:41;;;;;;;23.52;17.75;;;5.70;99.90;;;;;;4999387;28;20056;-77
2023/10/18 03:57:37;;;;;;;19.70;15.70;;;5.70;99.90;;;;;;5014995;28;20052;-77
2023/10/18 04:00:28;;;;;;;20.60;17.45;;;5.60;99.90;;;;;;4999375;28;20034;-77
2023/10/18 04:02:56;;;;;;;23.23;18.83;;;5.60;99.90;;;;;;5018571;28;20095;-77
2023/10/18 04:08:17;;;;;;;28.63;19.00;;;5.60;99.90;;;;;;5020755;28;20542;-77
2023/10/18 04:10:46;;;;;;;22.15;17.23;;;5.60;99.90;;;;;;5001690;28;20036;-77
2023/10/18 04:13:12;;;;;;;27.30;19.17;;;5.60;99.90;;;;;;5019131;28;20543;-77
2023/10/18 04:15:45;;;;;;;23.63;17.73;;;5.60;99.90;;;;;;5021058;28;20038;-77
2023/10/18 04:18:12;;;;;;;27.05;21.70;;;5.60;99.90;;;;;;5000248;28;20048;-77
2023/10/18 04:20:43;;;;;;;27.92;21.02;;;5.70;99.90;;;;;;5035128;28;20257;-77
2023/10/18 04:23:18;;;;;;;27.55;21.00;;;5.60;99.90;;;;;;4997327;28;20033;-77
2023/10/18 04:25:57;;;;;;;27.75;20.15;;;5.60;99.90;;;;;;5004536;28;20025;-76
2023/10/18 04:28:31;;;;;;;26.73;19.83;;;5.60;99.90;;;;;;5018943;28;20380;-77
2023/10/18 04:31:00;;;;;;;30.10;21.67;;;5.60;99.90;;;;;;5020159;28;20700;-77
2023/10/18 04:33:28;;;;;;;22.38;17.27;;;5.70;99.90;;;;;;5021805;28;20072;-76
2023/10/18 04:35:58;;;;;;;27.38;18.98;;;5.60;99.90;;;;;;5020958;28;20053;-77
2023/10/18 04:38:36;;;;;;;27.63;20.17;;;5.60;99.90;;;;;;4996330;28;20388;-77
2023/10/18 04:41:09;;;;;;;27.90;19.20;;;5.60;99.90;;;;;;5020708;28;20468;-77
2023/10/18 04:43:37;;;;;;;23.95;18.13;;;5.60;99.90;;;;;;5034523;28;20536;-77
2023/10/18 04:46:14;;;;;;;23.08;17.95;;;5.60;99.90;;;;;;5003953;28;20037;-77
2023/10/18 04:49:00;;;;;;;23.73;16.88;;;5.60;99.90;;;;;;5017219;28;20049;-77
2023/10/18 04:51:27;;;;;;;27.90;19.52;;;5.60;99.90;;;;;;5019073;28;20036;-77
2023/10/18 04:53:57;;;;;;;21.90;17.63;;;5.60;99.90;;;;;;5035815;28;20368;-77
2023/10/18 04:56:34;;;;;;;21.75;16.35;;;5.60;99.90;;;;;;5016865;28;20036;-77
2023/10/18 04:59:06;;;;;;;24.45;17.83;;;5.60;99.90;;;;;;4985312;28;20484;-77
2023/10/18 05:01:56;;;;;;;27.20;19.45;;;5.60;99.90;;;;;;5002969;28;20033;-77
2023/10/18 05:04:32;;;;;;;22.48;16.38;;;5.60;99.90;;;;;;5022496;28;22866;-77
2023/10/18 05:07:40;;;;;;;19.45;14.35;;;5.60;99.90;;;;;;5001267;28;20083;-77
2023/10/18 05:09:55;;;;;;;20.65;15.85;;;5.60;99.90;;;;;;5014328;28;20236;-77
2023/10/18 05:14:50;;;;;;;21.95;16.27;;;5.60;99.90;;;;;;5019786;28;20052;-77
2023/10/18 05:17:23;;;;;;;20.02;16.05;;;5.60;99.90;;;;;;5001207;28;20029;-77
2023/10/18 05:19:51;;;;;;;24.88;17.63;;;5.60;99.90;;;;;;5017689;28;20373;-77
2023/10/18 05:22:20;;;;;;;23.40;17.20;;;5.50;99.90;;;;;;5020768;28;20368;-77
2023/10/18 05:24:54;;;;;;;23.52;17.45;;;5.60;99.90;;;;;;4999553;28;20042;-77
2023/10/18 05:27:28;;;;;;;23.02;17.27;;;5.50;99.90;;;;;;5001780;28;20049;-76
2023/10/18 05:29:57;;;;;;;20.48;15.70;;;5.50;99.90;;;;;;5018993;28;20026;-77
2023/10/18 05:35:03;;;;;;;18.33;15.07;;;5.50;99.90;;;;;;5033192;28;20420;-77
2023/10/18 05:37:33;;;;;;;19.42;15.93;;;5.50;99.90;;;;;;5019236;28;20041;-77
2023/10/18 05:40:45;;;;;;;26.02;18.35;;;5.50;99.90;;;;;;4999031;28;20033;-77
2023/10/18 05:42:54;;;;;;;26.13;20.08;;;5.50;99.90;;;;;;5017636;28;20025;-78
2023/10/18 05:45:21;;;;;;;27.10;19.77;;;5.50;99.90;;;;;;5018956;28;20044;-78
2023/10/18 05:47:54;;;;;;;26.73;19.50;;;5.40;99.90;;;;;;5019111;28;20041;-77
2023/10/18 05:50:24;;;;;;;23.63;17.20;;;5.40;99.90;;;;;;4982667;28;20026;-77
2023/10/18 05:52:57;;;;;;;23.33;18.23;;;5.40;99.90;;;;;;5017828;28;20026;-77
2023/10/18 05:55:24;;;;;;;27.17;21.63;;;5.40;99.90;;;;;;5016384;28;20472;-76
2023/10/18 05:57:50;;;;;;;27.65;19.58;;;5.40;99.90;;;;;;5017301;28;20025;-76
2023/10/18 06:00:17;;;;;;;27.08;19.90;;;5.40;99.90;;;;;;5016853;28;20025;-77
2023/10/18 06:02:47;;;;;;;26.15;19.23;;;5.40;99.90;;;;;;5001174;28;20033;-76
2023/10/18 06:05:13;;;;;;;25.55;20.58;;;5.30;99.90;;;;;;5015210;28;20056;-76
2023/10/18 06:07:41;;;;;;;26.67;20.00;;;5.40;99.90;;;;;;4999750;28;20033;-75
2023/10/18 06:10:26;;;;;;;22.80;17.85;;;5.40;99.90;;;;;;5014692;28;20029;-78
2023/10/18 06:13:20;;;;;;;28.45;19.55;;;5.40;99.90;;;;;;4997695;28;20033;-76
2023/10/18 06:15:52;;;;;;;26.13;19.67;;;5.30;99.90;;;;;;5001319;28;20376;-77
2023/10/18 06:18:30;;;;;;;24.00;18.13;;;5.40;99.90;;;;;;5032225;28;20030;-77
2023/10/18 06:21:07;;;;;;;20.40;16.00;;;5.30;99.90;;;;;;5019029;28;20026;-77
2023/10/18 06:26:10;;;;;;;22.38;16.85;;;5.40;99.90;;;;;;5003068;28;20029;-77
2023/10/18 06:28:37;;;;;;;23.65;19.00;;;5.40;99.90;;;;;;5015728;28;20041;-77
2023/10/18 06:31:04;;;;;;;22.05;17.73;;;5.40;99.90;;;;;;4983374;28;20099;-77
2023/10/18 06:33:35;;;;;;;22.23;16.98;;;5.50;99.90;;;;;;5015900;28;20037;-76
2023/10/18 06:36:11;;;;;;;20.85;16.92;;;5.50;99.90;;;;;;5018207;28;20045;-75
2023/10/18 06:38:39;;;;;;;24.10;19.33;;;5.50;99.90;;;;;;5013191;28;20453;-77
2023/10/18 06:41:18;;;;;;;26.67;19.52;;;5.50;99.90;;;;;;5015759;28;20026;-79
2023/10/18 06:43:45;;;;;;;29.00;19.88;;;5.60;99.90;;;;;;5014795;28;20464;-76
2023/10/18 06:46:26;;;;;;;26.60;19.65;;;5.60;99.90;;;;;;5015942;28;20048;-77
2023/10/18 06:49:02;;;;;;;25.80;18.00;;;5.60;99.90;;;;;;5011413;28;20036;-76
2023/10/18 06:51:33;;;;;;;25.55;18.25;;;5.60;99.90;;;;;;5011049;28;20037;-77
2023/10/18 06:54:03;;;;;;;23.40;18.25;;;5.70;99.90;;;;;;5017667;28;20102;-77
2023/10/18 06:56:39;;;;;;;20.13;15.73;;;5.70;99.90;;;;;;5017993;28;20049;-77
2023/10/18 06:59:10;;;;;;;22.75;17.35;;;5.70;99.90;;;;;;5013778;28;20048;-76
2023/10/18 07:01:53;;;;;;;27.13;19.80;;;5.80;99.90;;;;;;5016605;28;20577;-77
2023/10/18 07:04:26;;;;;;;;;;;5.80;99.90;;;;;;5017985;28;22308;-77
2023/10/18 07:07:11;;;;;;;20.33;16.80;;;5.90;99.90;;;;;;5029279;28;20157;-77
2023/10/18 07:09:38;;;;;;;24.23;18.70;;;5.90;99.90;;;;;;4992520;28;20037;-77
2023/10/18 07:12:09;;;;;;;26.05;20.23;;;5.90;99.90;;;;;;5015087;28;20030;-77
2023/10/18 07:14:40;;;;;;;;;;;6.00;99.90;;;;;;5015273;28;20061;-78
2023/10/18 07:17:09;;;;;;;19.33;16.33;;;6.00;99.90;;;;;;4998607;28;19924;-78
2023/10/18 07:19:48;;;;;;;19.45;15.73;;;6.00;99.90;;;;;;5016881;28;20388;-78
2023/10/18 07:22:44;;;;;;;20.70;16.30;;;6.10;99.90;;;;;;4995445;28;20030;-77
2023/10/18 07:25:12;;;;;;;21.50;15.57;;;6.10;99.90;;;;;;5016953;28;20060;-78
2023/10/18 07:27:41;;;;;;;23.13;17.02;;;6.20;99.90;;;;;;5012844;28;20044;-77
2023/10/18 07:30:14;;;;;;;21.33;15.50;;;6.20;99.90;;;;;;5018346;28;20040;-77
2023/10/18 07:32:42;;;;;;;18.60;15.05;;;6.30;99.90;;;;;;5019115;28;20332;-77
2023/10/18 07:35:12;;;;;;;18.63;15.13;;;6.40;99.90;;;;;;5017275;28;20400;-76
2023/10/18 07:37:43;;;;;;;19.45;15.13;;;6.40;99.90;;;;;;5018889;28;20656;-77
2023/10/18 07:40:21;;;;;;;17.63;14.35;;;6.50;99.90;;;;;;5016595;28;20037;-77
2023/10/18 07:42:51;;;;;;;17.90;13.10;;;6.60;99.90;;;;;;5014696;28;20091;-77
2023/10/18 07:45:20;;;;;;;17.48;14.35;;;6.60;99.90;;;;;;5002624;28;20041;-76
2023/10/18 07:47:54;;;;;;;17.98;14.82;;;6.70;99.90;;;;;;5019676;28;20484;-78
2023/10/18 07:53:06;;;;;;;19.42;15.55;;;6.80;99.90;;;;;;5002476;28;20037;-77
2023/10/18 07:55:42;;;;;;;19.65;15.32;;;6.90;99.90;;;;;;5018139;28;20045;-78
2023/10/18 07:58:22;;;;;;;18.00;14.20;;;6.90;99.90;;;;;;5002262;28;20052;-76
2023/10/18 08:03:31;;;;;;;17.25;13.73;;;7.00;99.90;;;;;;5004987;28;20037;-77
2023/10/18 08:05:59;;;;;;;17.52;14.45;;;7.10;99.90;;;;;;5019773;28;20030;-77
2023/10/18 08:08:26;;;;;;;19.17;13.63;;;7.10;99.90;;;;;;5013716;28;20040;-77
2023/10/18 08:10:56;;;;;;;15.63;12.40;;;7.20;99.90;;;;;;4999978;28;20029;-78
2023/10/18 08:13:26;;;;;;;22.35;14.93;;;7.30;99.90;;;;;;5034822;28;20424;-78
2023/10/18 08:15:53;;;;;;;17.38;13.75;;;7.30;99.90;;;;;;5016424;28;20034;-77
2023/10/18 08:18:39;;;;;;;18.10;14.88;;;7.40;99.90;;;;;;5018754;28;20432;-78
2023/10/18 08:23:57;;;;;;;21.60;14.98;;;7.50;99.90;;;;;;5019090;28;20045;-79
2023/10/18 08:26:27;;;;;;;15.40;12.88;;;7.60;99.90;;;;;;5001917;28;20049;-79
2023/10/18 08:28:54;;;;;;;20.88;16.30;;;7.70;99.90;;;;;;5001415;28;20037;-79
2023/10/18 08:31:33;;;;;;;16.50;13.60;;;7.80;99.90;;;;;;4988228;28;20043;-76
2023/10/18 08:34:18;;;;;;;13.90;11.88;;;7.80;99.90;;;;;;5003479;28;20052;-77
2023/10/18 08:36:44;;;;;;;12.52;11.02;;;7.90;99.90;;;;;;5018830;28;20037;-78
2023/10/18 08:39:11;;;;;;;14.18;12.60;;;8.00;99.90;;;;;;5000097;28;20033;-77
2023/10/18 08:42:02;;;;;;;13.30;11.90;;;8.10;99.90;;;;;;5000557;28;20499;-76
2023/10/18 08:44:30;;;;;;;14.57;13.07;;;8.20;99.90;;;;;;4983332;28;20500;-76
2023/10/18 08:49:45;;;;;;;17.30;12.63;;;8.40;99.90;;;;;;5015844;28;20049;-77
2023/10/18 08:52:12;;;;;;;14.70;10.98;;;8.50;99.90;;;;;;5017319;28;20033;-76
2023/10/18 08:54:42;;;;;;;10.77;9.68;;;8.50;99.90;;;;;;5020801;28;20029;-76
2023/10/18 08:57:09;;;;;;;13.35;10.48;;;8.60;99.90;;;;;;5002627;28;20037;-77
2023/10/18 08:59:43;;;;;;;13.32;11.88;;;8.70;99.90;;;;;;5020719;28;20060;-76
2023/10/18 09:02:18;;;;;;;11.85;10.25;;;8.80;99.90;;;;;;5003316;28;20040;-79
2023/10/18 09:04:52;;;;;;;12.55;10.48;;;8.90;99.90;;;;;;5021361;28;20037;-76
2023/10/18 09:07:22;;;;;;;10.70;9.35;;;9.00;99.90;;;;;;5001640;28;20037;-78
2023/10/18 09:09:57;;;;;;;11.35;9.98;;;9.10;99.90;;;;;;5002312;28;20040;-77
2023/10/18 09:18:16;;;;;;;16.15;10.98;;;9.40;99.90;;;;;;4995326;28;20042;-76
2023/10/18 09:20:42;;;;;;;10.93;9.32;;;9.60;99.90;;;;;;4977293;28;20400;-77
2023/10/18 09:23:19;;;;;;;10.43;8.75;;;9.60;99.90;;;;;;5012729;28;20057;-76
2023/10/18 09:25:49;;;;;;;9.95;8.60;;;9.70;99.90;;;;;;4983526;28;20065;-76
2023/10/18 09:28:22;;;;;;;11.50;9.60;;;9.90;99.90;;;;;;4996034;28;20040;-77
2023/10/18 09:30:48;;;;;;;12.85;8.63;;;10.00;99.90;;;;;;4994013;28;20059;-77
2023/10/18 09:33:15;;;;;;;12.65;9.75;;;10.10;99.90;;;;;;4995682;28;20378;-75
2023/10/18 09:35:47;;;;;;;15.57;11.30;;;10.20;99.90;;;;;;4994002;28;20050;-76
2023/10/18 09:38:17;;;;;;;13.10;10.47;;;10.40;99.90;;;;;;4979089;28;20029;-76
2023/10/18 09:40:47;;;;;;;10.65;7.82;;;10.50;99.90;;;;;;4979352;28;20044;-76
2023/10/18 09:43:13;;;;;;;9.15;7.55;;;10.60;99.90;;;;;;5011539;28;20049;-76
2023/10/18 09:45:40;;;;;;;8.52;7.10;;;10.70;99.90;;;;;;4996499;28;20033;-76
2023/10/18 09:48:10;;;;;;;8.02;6.00;;;10.90;99.90;;;;;;5012801;28;20041;-77
2023/10/18 09:50:37;;;;;;;8.98;6.57;;;11.20;99.90;;;;;;5014200;28;20459;-77
2023/10/18 09:53:05;;;;;;;9.38;6.30;;;11.40;99.90;;;;;;4997345;28;20496;-78
2023/10/18 09:55:33;;;;;;;8.13;6.97;;;11.60;99.90;;;;;;5011774;28;20038;-75
2023/10/18 09:58:04;;;;;;;8.23;5.43;;;11.70;99.90;;;;;;5000653;28;20468;-78
2023/10/18 10:00:42;;;;;;;7.35;6.25;;;11.80;99.90;;;;;;5000240;28;20048;-78
2023/10/18 10:03:09;;;;;;;6.28;5.30;;;11.90;99.90;;;;;;5001408;28;20056;-76
2023/10/18 10:05:43;;;;;;;6.45;4.95;;;12.00;99.90;;;;;;5020596;28;20048;-76
2023/10/18 10:08:11;;;;;;;6.90;4.85;;;12.00;99.90;;;;;;4999449;28;20038;-78
2023/10/18 10:10:46;;;;;;;5.15;4.40;;;12.10;99.90;;;;;;5000022;28;20436;-76
2023/10/18 10:13:27;;;;;;;6.82;5.32;;;12.20;99.90;;;;;;4993712;28;20687;-79
2023/10/18 10:16:08;;;;;;;6.33;4.47;;;12.40;99.90;;;;;;5032207;28;20041;-76
2023/10/18 10:18:42;;;;;;;8.65;5.07;;;12.50;99.90;;;;;;5019795;28;20036;-78
2023/10/18 10:21:12;;;;;;;6.60;5.30;;;12.60;99.90;;;;;;4997942;28;20036;-77
2023/10/18 10:23:38;;;;;;;5.85;4.20;;;12.70;99.90;;;;;;5031570;28;20040;-75
2023/10/18 10:26:11;;;;;;;6.28;4.47;;;12.80;99.90;;;;;;5015414;28;20041;-77
2023/10/18 10:31:56;;;;;;;7.75;4.60;;;13.00;99.90;;;;;;5017972;28;20044;-76
2023/10/18 10:34:27;;;;;;;6.57;4.60;;;13.20;99.90;;;;;;5001939;28;20041;-76
2023/10/18 10:37:26;;;;;;;5.65;4.35;;;13.30;99.90;;;;;;5016634;28;20038;-77
2023/10/18 10:43:01;;;;;;;7.93;4.00;;;13.70;99.90;;;;;;4991012;28;20044;-78
2023/10/18 10:45:53;;;;;;;4.68;3.60;;;13.90;99.90;;;;;;5004184;28;21219;-77
2023/10/18 10:48:30;;;;;;;5.18;4.35;;;14.30;99.90;;;;;;5000467;28;20040;-76
2023/10/18 10:51:06;;;;;;;6.78;4.68;;;14.30;99.90;;;;;;5018511;28;20408;-77
2023/10/18 10:53:44;;;;;;;5.85;4.28;;;14.20;99.90;;;;;;5015432;28;20045;-79
2023/10/18 10:56:17;;;;;;;4.85;3.13;;;14.00;99.90;;;;;;5033292;28;20041;-79
2023/10/18 10:59:03;;;;;;;4.88;3.22;;;13.90;99.90;;;;;;5015716;28;20049;-77
2023/10/18 11:01:39;;;;;;;5.45;3.78;;;13.90;99.90;;;;;;5000204;28;20598;-78
2023/10/18 11:04:50;;;;;;;6.30;3.97;;;13.90;99.90;;;;;;4998350;28;20029;-78
2023/10/18 11:07:22;;;;;;;4.80;3.92;;;13.90;99.90;;;;;;5014718;28;20045;-77
2023/10/18 11:09:59;;;;;;;5.10;3.35;;;14.00;99.90;;;;;;5014224;28;20451;-78
2023/10/18 11:12:27;;;;;;;9.25;3.97;;;14.00;99.90;;;;;;4980512;28;20044;-77
2023/10/18 11:14:54;;;;;;;6.50;3.97;;;14.00;99.90;;;;;;5021252;28;20483;-82
2023/10/18 11:17:23;;;;;;;4.82;4.03;;;14.00;99.90;;;;;;5019918;28;20524;-76
2023/10/18 11:19:53;;;;;;;4.90;3.58;;;14.00;99.90;;;;;;5004154;28;20022;-80
2023/10/18 11:22:22;;;;;;;6.07;3.35;;;14.00;99.90;;;;;;5019380;28;20524;-78
2023/10/18 11:24:52;;;;;;;7.60;5.07;;;14.00;99.90;;;;;;5034651;28;20029;-77
2023/10/18 11:27:33;;;;;;;5.32;4.30;;;14.00;99.90;;;;;;5016220;28;20495;-77
2023/10/18 11:32:49;;;;;;;5.50;3.75;;;13.90;99.90;;;;;;5021615;28;20664;-80
2023/10/18 11:35:44;;;;;;;5.97;4.38;;;14.00;99.90;;;;;;5019508;28;20033;-79
2023/10/18 11:38:10;;;;;;;6.13;3.92;;;14.10;99.90;;;;;;5019753;28;20045;-80
2023/10/18 11:40:48;;;;;;;6.68;5.07;;;14.10;99.90;;;;;;5015618;28;20033;-80
2023/10/18 11:43:27;;;;;;;5.55;4.28;;;14.10;99.90;;;;;;5017249;28;20047;-79
2023/10/18 11:46:07;;;;;;;5.45;3.20;;;14.10;99.90;;;;;;5002605;28;20473;-79
2023/10/18 11:48:37;;;;;;;4.93;3.55;;;14.10;99.90;;;;;;5035114;28;20029;-78
2023/10/18 11:51:06;;;;;;;4.65;2.97;;;14.10;99.90;;;;;;5035314;28;20029;-80
2023/10/18 11:53:35;;;;;;;6.38;3.90;;;14.30;99.90;;;;;;4987737;28;20049;-78
2023/10/18 11:56:05;;;;;;;6.30;3.50;;;14.50;99.90;;;;;;5035693;28;20056;-79
2023/10/18 11:58:33;;;;;;;3.70;2.92;;;14.90;99.90;;;;;;5015324;28;20033;-78
2023/10/18 12:01:06;;;;;;;6.18;3.97;;;15.40;99.90;;;;;;5032199;28;20030;-78
2023/10/18 12:03:38;;;;;;;;;;;15.70;99.90;;;;;;5020105;28;20030;-81
2023/10/18 12:06:04;;;;;;;5.47;3.08;;;15.80;99.90;;;;;;5000387;28;20934;-78
2023/10/18 12:08:47;;;;;;;5.47;4.03;;;15.80;99.90;;;;;;5017775;28;20036;-78
2023/10/18 12:11:14;;;;;;;;;;;15.80;99.90;;;;;;5001020;28;20029;-77
2023/10/18 12:13:41;;;;;;;5.90;3.25;;;15.90;99.90;;;;;;5018442;28;19917;-79
2023/10/18 12:16:08;;;;;;;5.95;3.45;;;16.10;99.90;;;;;;5012183;28;20053;-78
2023/10/18 12:18:38;;;;;;;4.60;2.92;;;16.40;99.90;;;;;;5019086;28;20060;-81
2023/10/18 12:21:07;;;;;;;7.68;5.50;;;16.80;99.90;;;;;;4996307;28;20045;-78
2023/10/18 12:23:35;;;;;;;6.88;4.43;;;17.10;99.90;;;;;;5002169;28;20033;-79
2023/10/18 12:26:06;;;;;;;5.03;3.00;;;17.20;99.90;;;;;;5019651;28;20362;-78
2023/10/18 12:28:37;;;;;;;4.43;2.63;;;17.40;99.90;;;;;;5019298;28;20037;-78
2023/10/18 12:31:13;;;;;;;4.30;2.97;;;17.50;99.90;;;;;;4995942;28;20860;-79
2023/10/18 12:33:48;;;;;;;7.47;2.78;;;17.50;99.90;;;;;;4997491;28;20345;-79
2023/10/18 12:36:22;;;;;;;4.13;3.20;;;17.60;99.90;;;;;;5000588;28;20083;-81
2023/10/18 12:38:49;;;;;;;3.05;2.17;;;17.70;99.90;;;;;;5030055;28;20037;-79
2023/10/18 12:43:45;;;;;;;4.25;1.80;;;17.20;99.90;;;;;;4998632;28;20476;-80
2023/10/18 12:46:21;;;;;;;5.53;3.00;;;16.90;99.90;;;;;;5016241;28;20025;-79
2023/10/18 12:48:51;;;;;;;3.67;2.08;;;16.60;99.90;;;;;;5028354;28;20033;-79
2023/10/18 12:51:18;;;;;;;4.75;2.40;;;16.30;99.90;;;;;;5032705;28;20049;-76
2023/10/18 12:53:55;;;;;;;3.33;2.25;;;16.00;99.90;;;;;;5004899;28;20060;-78
2023/10/18 12:56:44;;;;;;;3.30;2.47;;;15.80;99.90;;;;;;5023738;28;20048;-82
2023/10/18 13:04:07;;;;;;;3.13;2.20;;;15.40;99.90;;;;;;5017117;28;20033;-77
2023/10/18 13:06:44;;;;;;;4.35;2.53;;;15.30;99.90;;;;;;5034192;28;20040;-78
2023/10/18 13:11:44;;;;;;;4.78;2.97;;;15.20;99.90;;;;;;5014815;28;20033;-79
2023/10/18 13:14:31;;;;;;;5.22;3.15;;;15.20;99.90;;;;;;4997936;28;20036;-77
2023/10/18 13:17:00;;;;;;;4.40;2.35;;;15.00;99.90;;;;;;5015473;28;20049;-79
2023/10/18 13:19:29;;;;;;;4.03;2.50;;;14.90;99.90;;;;;;4998412;28;21425;-78
2023/10/18 13:21:55;;;;;;;5.07;1.73;;;14.80;99.90;;;;;;5017703;28;20026;-77
2023/10/18 13:26:54;;;;;;;3.63;2.15;;;14.70;99.90;;;;;;5018497;28;20388;-77
2023/10/18 13:31:49;;;;;;;4.65;1.85;;;14.60;99.90;;;;;;5019184;28;20416;-79
2023/10/18 13:34:18;;;;;;;3.53;2.72;;;14.60;99.90;;;;;;5018517;28;20041;-78
2023/10/18 13:36:51;;;;;;;3.58;2.40;;;14.70;99.90;;;;;;4985914;28;20048;-78
2023/10/18 13:39:19;;;;;;;4.47;2.53;;;14.70;99.90;;;;;;5016859;28;21083;-77
2023/10/18 13:41:49;;;;;;;4.60;3.10;;;14.70;99.90;;;;;;5015296;28;20026;-78
2023/10/18 13:44:20;;;;;;;4.93;3.35;;;14.70;99.90;;;;;;5016551;28;20025;-79
2023/10/18 13:46:50;;;;;;;3.83;2.83;;;14.70;99.90;;;;;;5015826;28;20048;-77
2023/10/18 13:49:23;;;;;;;5.85;2.28;;;14.70;99.90;;;;;;4998987;28;20044;-78
2023/10/18 13:51:51;;;;;;;4.75;2.63;;;14.60;99.90;;;;;;5018234;28;20429;-79
2023/10/18 13:54:18;;;;;;;4.95;2.17;;;14.60;99.90;;;;;;5016636;28;20033;-77
2023/10/18 13:56:44;;;;;;;4.80;2.40;;;14.50;99.90;;;;;;5019779;28;20037;-78
2023/10/18 13:59:11;;;;;;;3.63;2.60;;;14.60;99.90;;;;;;4984995;28;20456;-80
2023/10/18 14:01:38;;;;;;;4.13;2.70;;;14.50;99.90;;;;;;5019506;28;20036;-79